createdAt,value
2022-09-28T00:01:52.027Z,1.80
2022-09-28T00:04:18.778Z,1.92
2022-09-28T00:06:45.445Z,1.95
2022-09-28T00:09:12.071Z,1.88
2022-09-28T00:11:38.788Z,1.85
2022-09-28T00:14:07.456Z,2.03
2022-09-28T00:16:36.069Z,1.83
2022-09-28T00:19:05.357Z,1.92
2022-09-28T00:21:33.959Z,1.90
2022-09-28T00:24:17.530Z,2.13
2022-09-28T00:26:45.856Z,2.13
2022-09-28T00:29:22.349Z,2.00
2022-09-28T00:31:52.514Z,2.17
2022-09-28T00:34:19.612Z,2.10
2022-09-28T00:36:47.011Z,2.13
2022-09-28T00:39:14.853Z,1.90
2022-09-28T00:41:41.750Z,1.90
2022-09-28T00:44:26.716Z,1.65
2022-09-28T00:46:59.014Z,2.20
2022-09-28T00:49:33.230Z,1.85
2022-09-28T00:52:00.238Z,1.75
2022-09-28T00:54:26.952Z,1.63
2022-09-28T00:56:53.712Z,1.58
2022-09-28T00:59:20.534Z,1.65
2022-09-28T01:01:47.304Z,1.92
2022-09-28T01:04:14.204Z,1.40
2022-09-28T01:06:40.908Z,2.05
2022-09-28T01:09:14.202Z,2.17
2022-09-28T01:11:42.431Z,2.10
2022-09-28T01:14:12.490Z,1.60
2022-09-28T01:16:50.719Z,1.80
2022-09-28T01:19:44.331Z,1.52
2022-09-28T01:22:48.436Z,1.60
2022-09-28T01:25:46.032Z,1.73
2022-09-28T01:28:15.461Z,1.50
2022-09-28T01:30:56.694Z,1.73
2022-09-28T01:33:26.902Z,1.42
2022-09-28T01:35:58.467Z,1.98
2022-09-28T01:38:35.970Z,2.00
2022-09-28T01:41:03.428Z,1.52
2022-09-28T01:43:31.690Z,1.60
2022-09-28T01:46:14.887Z,1.60
2022-09-28T01:48:55.211Z,1.80
2022-09-28T01:52:02.325Z,2.03
2022-09-28T01:54:42.287Z,2.10
2022-09-28T01:57:15.362Z,1.90
2022-09-28T01:59:46.129Z,2.47
2022-09-28T02:02:16.387Z,2.67
2022-09-28T02:04:47.228Z,2.22
2022-09-28T02:07:23.457Z,2.53
2022-09-28T02:10:00.982Z,2.63
2022-09-28T02:12:34.584Z,2.60
2022-09-28T02:15:26.606Z,3.00
2022-09-28T02:17:53.533Z,2.50
2022-09-28T02:20:21.737Z,3.10
2022-09-28T02:22:50.949Z,3.08
2022-09-28T02:25:31.560Z,3.13
2022-09-28T02:28:04.163Z,2.95
2022-09-28T02:30:32.369Z,3.65
2022-09-28T02:33:23.464Z,3.00
2022-09-28T02:35:50.231Z,2.60
2022-09-28T02:38:18.600Z,2.80
2022-09-28T02:40:55.905Z,3.10
2022-09-28T02:43:48.365Z,2.72
2022-09-28T02:46:23.821Z,2.95
2022-09-28T02:49:21.306Z,2.80
2022-09-28T02:52:35.426Z,2.83
2022-09-28T02:55:18.918Z,2.90
2022-09-28T02:58:01.610Z,3.30
2022-09-28T03:00:29.971Z,3.33
2022-09-28T03:03:19.222Z,2.80
2022-09-28T03:06:11.591Z,2.92
2022-09-28T03:08:56.371Z,3.42
2022-09-28T03:11:33.292Z,3.13
2022-09-28T03:14:00.542Z,3.08
2022-09-28T03:16:36.994Z,3.25
2022-09-28T03:19:03.748Z,3.30
2022-09-28T03:21:30.503Z,3.30
2022-09-28T03:23:57.812Z,3.15
2022-09-28T03:26:24.491Z,4.00
2022-09-28T03:28:51.134Z,3.70
2022-09-28T03:31:22.944Z,3.55
2022-09-28T03:33:51.455Z,3.47
2022-09-28T03:36:18.384Z,3.90
2022-09-28T03:38:45.132Z,3.47
2022-09-28T03:41:11.824Z,3.38
2022-09-28T03:43:41.594Z,3.60
2022-09-28T03:46:08.545Z,3.65
2022-09-28T03:48:40.697Z,3.08
2022-09-28T03:51:10.081Z,3.60
2022-09-28T03:53:39.000Z,3.20
2022-09-28T03:56:14.155Z,3.30
2022-09-28T03:58:41.846Z,3.28
2022-09-28T04:01:16.454Z,3.17
2022-09-28T04:03:45.579Z,3.58
2022-09-28T04:06:12.290Z,3.60
2022-09-28T04:08:39.317Z,3.72
2022-09-28T04:11:06.364Z,3.67
2022-09-28T04:13:33.933Z,3.42
2022-09-28T04:16:01.696Z,4.80
2022-09-28T04:18:32.794Z,3.92
2022-09-28T04:21:28.942Z,4.38
2022-09-28T04:24:02.426Z,3.72
2022-09-28T04:26:29.165Z,4.43
2022-09-28T04:29:15.513Z,3.90
2022-09-28T04:31:46.481Z,3.80
2022-09-28T04:34:17.493Z,4.15
2022-09-28T04:36:45.152Z,3.97
2022-09-28T04:39:12.793Z,3.95
2022-09-28T04:41:41.888Z,4.03
2022-09-28T04:44:09.347Z,4.07
2022-09-28T04:46:36.216Z,4.22
2022-09-28T04:49:32.115Z,3.70
2022-09-28T04:52:06.458Z,4.40
2022-09-28T04:54:34.448Z,4.00
2022-09-28T04:57:03.445Z,4.30
2022-09-28T04:59:30.137Z,4.15
2022-09-28T05:01:56.922Z,4.00
2022-09-28T05:04:41.669Z,4.47
2022-09-28T05:07:27.082Z,4.15
2022-09-28T05:09:55.368Z,4.63
2022-09-28T05:12:22.152Z,4.38
2022-09-28T05:14:48.940Z,5.88
2022-09-28T05:17:15.666Z,6.07
2022-09-28T05:20:14.550Z,5.82
2022-09-28T05:22:41.643Z,5.97
2022-09-28T05:25:09.456Z,5.18
2022-09-28T05:27:47.648Z,5.55
2022-09-28T05:30:30.280Z,5.00
2022-09-28T05:33:32.936Z,4.80
2022-09-28T05:36:11.135Z,4.78
2022-09-28T05:38:38.217Z,5.13
2022-09-28T05:41:06.717Z,4.90
2022-09-28T05:43:33.614Z,5.38
2022-09-28T05:46:00.721Z,5.18
2022-09-28T05:48:28.426Z,4.95
2022-09-28T05:50:55.163Z,4.30
2022-09-28T05:53:21.993Z,4.90
2022-09-28T05:55:49.197Z,5.45
2022-09-28T05:58:16.373Z,5.10
2022-09-28T06:00:43.465Z,4.93
2022-09-28T06:03:14.181Z,4.82
2022-09-28T06:05:41.446Z,4.82
2022-09-28T06:08:10.769Z,5.03
2022-09-28T06:10:39.314Z,4.93
2022-09-28T06:13:06.731Z,5.43
2022-09-28T06:15:34.606Z,5.65
2022-09-28T06:18:03.669Z,5.43
2022-09-28T06:20:56.780Z,5.20
2022-09-28T06:23:31.371Z,5.22
2022-09-28T06:25:59.411Z,4.60
2022-09-28T06:28:27.056Z,4.85
2022-09-28T06:30:54.281Z,5.35
2022-09-28T06:33:22.068Z,5.38
2022-09-28T06:35:48.801Z,5.03
2022-09-28T06:38:15.884Z,5.28
2022-09-28T06:40:42.581Z,4.97
2022-09-28T06:43:15.277Z,5.10
2022-09-28T06:46:01.573Z,4.88
2022-09-28T06:48:32.625Z,5.28
2022-09-28T06:51:00.818Z,5.75
2022-09-28T06:53:40.638Z,5.63
2022-09-28T06:56:37.248Z,5.35
2022-09-28T06:59:04.558Z,5.35
2022-09-28T07:01:31.523Z,5.63
2022-09-28T07:04:18.500Z,5.07
2022-09-28T07:07:23.400Z,5.03
2022-09-28T07:10:17.248Z,5.32
2022-09-28T07:13:04.235Z,5.57
2022-09-28T07:15:40.404Z,6.00
2022-09-28T07:18:12.032Z,5.47
2022-09-28T07:20:52.378Z,5.20
2022-09-28T07:23:20.837Z,5.38
2022-09-28T07:26:11.305Z,5.45
2022-09-28T07:28:56.075Z,5.30
2022-09-28T07:31:38.114Z,5.20
2022-09-28T07:34:13.910Z,5.55
2022-09-28T07:36:59.875Z,5.60
2022-09-28T07:39:26.637Z,5.05
2022-09-28T07:41:56.748Z,5.38
2022-09-28T07:44:26.432Z,5.38
2022-09-28T07:46:54.474Z,5.20
2022-09-28T07:49:26.623Z,4.80
2022-09-28T07:52:12.573Z,5.88
2022-09-28T07:54:57.896Z,4.82
2022-09-28T07:57:43.393Z,5.20
2022-09-28T08:00:21.782Z,5.30
2022-09-28T08:02:48.845Z,5.00
2022-09-28T08:05:22.520Z,5.07
2022-09-28T08:07:49.266Z,4.97
2022-09-28T08:10:17.520Z,5.22
2022-09-28T08:13:06.471Z,5.13
2022-09-28T08:16:01.692Z,5.82
2022-09-28T08:18:51.073Z,5.60
2022-09-28T08:21:36.506Z,5.00
2022-09-28T08:24:03.179Z,5.28
2022-09-28T08:26:30.014Z,4.78
2022-09-28T08:28:57.796Z,4.90
2022-09-28T08:31:48.100Z,3.95
2022-09-28T08:34:39.492Z,4.05
2022-09-28T08:37:19.666Z,4.05
2022-09-28T08:40:05.398Z,3.58
2022-09-28T08:42:55.951Z,3.33
2022-09-28T08:45:45.568Z,3.15
2022-09-28T08:49:01.406Z,2.58
2022-09-28T08:52:19.243Z,2.50
2022-09-28T08:55:07.709Z,2.30
2022-09-28T08:57:45.348Z,2.30
2022-09-28T09:00:51.957Z,2.17
2022-09-28T09:03:32.792Z,1.83
2022-09-28T09:06:37.602Z,1.70
2022-09-28T09:10:05.240Z,1.35
2022-09-28T09:12:37.629Z,1.60
2022-09-28T09:15:28.607Z,1.38
2022-09-28T09:18:25.559Z,1.50
2022-09-28T09:21:18.071Z,1.23
2022-09-28T09:24:21.604Z,1.15
2022-09-28T09:26:52.656Z,1.15
2022-09-28T09:29:46.883Z,1.20
2022-09-28T09:32:29.266Z,1.10
2022-09-28T09:35:00.195Z,1.20
2022-09-28T09:38:19.677Z,1.00
2022-09-28T09:40:58.713Z,1.08
2022-09-28T09:44:10.922Z,1.10
2022-09-28T09:47:19.861Z,0.93
2022-09-28T09:50:13.656Z,0.80
2022-09-28T09:52:55.005Z,0.95
2022-09-28T09:55:30.456Z,0.90
2022-09-28T09:58:24.374Z,1.08
2022-09-28T10:01:06.188Z,0.95
2022-09-28T10:03:52.996Z,0.75
2022-09-28T10:06:27.565Z,0.90
2022-09-28T10:09:12.622Z,0.90
2022-09-28T10:11:50.052Z,0.73
2022-09-28T10:14:20.189Z,1.10
2022-09-28T10:16:54.547Z,0.80
2022-09-28T10:19:42.377Z,1.05
2022-09-28T10:22:29.003Z,0.80
2022-09-28T10:25:00.108Z,0.60
2022-09-28T10:27:34.020Z,0.70
2022-09-28T10:30:09.828Z,0.90
2022-09-28T10:32:41.701Z,0.95
2022-09-28T10:35:29.862Z,0.82
2022-09-28T10:38:05.130Z,1.58
2022-09-28T10:40:54.552Z,1.20
2022-09-28T10:44:07.051Z,1.20
2022-09-28T10:47:00.037Z,1.30
2022-09-28T10:49:35.808Z,1.30
2022-09-28T10:52:02.592Z,1.35
2022-09-28T10:54:37.228Z,1.88
2022-09-28T10:57:13.366Z,1.70
2022-09-28T10:59:54.069Z,1.60
2022-09-28T11:02:35.483Z,1.70
2022-09-28T11:05:22.182Z,1.60
2022-09-28T11:07:49.969Z,1.73
2022-09-28T11:10:22.913Z,1.70
2022-09-28T11:12:51.422Z,1.60
2022-09-28T11:15:26.147Z,1.90
2022-09-28T11:17:53.156Z,1.70
2022-09-28T11:20:27.526Z,1.90
2022-09-28T11:23:18.169Z,1.77
2022-09-28T11:26:06.919Z,1.55
2022-09-28T11:28:37.570Z,1.30
2022-09-28T11:31:11.969Z,1.50
2022-09-28T11:34:06.420Z,1.75
2022-09-28T11:37:02.356Z,1.48
2022-09-28T11:39:47.866Z,1.38
2022-09-28T11:42:20.834Z,1.20
2022-09-28T11:44:49.002Z,1.30
2022-09-28T11:47:41.729Z,1.27
2022-09-28T11:50:28.851Z,0.90
2022-09-28T11:53:13.425Z,0.90
2022-09-28T11:55:51.026Z,0.80
2022-09-28T11:58:22.896Z,0.70
2022-09-28T12:00:55.030Z,1.10
2022-09-28T12:03:39.547Z,1.00
2022-09-28T12:06:11.081Z,0.80
2022-09-28T12:08:42.299Z,0.73
2022-09-28T12:11:13.153Z,0.98
2022-09-28T12:14:05.301Z,1.20
2022-09-28T12:17:04.099Z,0.80
2022-09-28T12:19:32.757Z,0.40
2022-09-28T12:22:12.807Z,0.60
2022-09-28T12:24:43.256Z,0.55
2022-09-28T12:27:09.933Z,0.50
2022-09-28T12:29:56.095Z,0.50
2022-09-28T12:32:37.649Z,0.50
2022-09-28T12:35:15.290Z,0.60
2022-09-28T12:37:58.790Z,0.52
2022-09-28T12:40:45.659Z,0.60
2022-09-28T12:43:31.276Z,0.60
2022-09-28T12:46:11.982Z,0.65
2022-09-28T12:49:56.330Z,0.70
2022-09-28T12:52:19.070Z,0.70
2022-09-28T12:55:01.365Z,0.60
2022-09-28T12:57:46.715Z,0.60
2022-09-28T13:00:16.614Z,0.57
2022-09-28T13:03:02.592Z,0.70
2022-09-28T13:05:47.685Z,0.60
2022-09-28T13:08:31.083Z,0.70
2022-09-28T13:11:05.474Z,0.80
2022-09-28T13:14:10.047Z,0.50
2022-09-28T13:16:36.942Z,0.35
2022-09-28T13:19:18.832Z,0.60
2022-09-28T13:22:27.067Z,0.60
2022-09-28T13:24:55.799Z,0.40
2022-09-28T13:27:33.494Z,0.30
2022-09-28T13:30:01.294Z,0.50
2022-09-28T13:32:31.617Z,0.38
2022-09-28T13:34:58.898Z,0.30
2022-09-28T13:37:26.007Z,0.30
2022-09-28T13:39:59.393Z,0.30
2022-09-28T13:42:47.523Z,0.40
2022-09-28T13:45:20.303Z,0.60
2022-09-28T13:47:50.022Z,0.57
2022-09-28T13:50:34.975Z,0.35
2022-09-28T13:53:50.226Z,0.40
2022-09-28T13:56:49.279Z,0.32
2022-09-28T13:59:21.986Z,0.47
2022-09-28T14:02:06.635Z,0.40
2022-09-28T14:05:03.216Z,0.40
2022-09-28T14:07:35.825Z,0.50
2022-09-28T14:10:14.918Z,0.50
2022-09-28T14:12:49.003Z,0.55
2022-09-28T14:15:40.355Z,0.63
2022-09-28T14:18:16.242Z,0.55
2022-09-28T14:20:56.350Z,0.30
2022-09-28T14:24:04.561Z,0.70
2022-09-28T14:27:04.594Z,0.60
2022-09-28T14:29:37.380Z,0.60
2022-09-28T14:32:25.226Z,0.82
2022-09-28T14:34:58.541Z,0.85
2022-09-28T14:37:50.983Z,0.80
2022-09-28T14:40:45.834Z,0.70
2022-09-28T14:43:24.927Z,0.70
2022-09-28T14:46:11.772Z,0.93
2022-09-28T14:48:57.810Z,1.00
2022-09-28T14:51:27.516Z,0.60
2022-09-28T14:53:56.703Z,0.50
2022-09-28T14:56:24.947Z,0.85
2022-09-28T14:58:55.096Z,1.00
2022-09-28T15:01:24.794Z,0.70
2022-09-28T15:03:54.972Z,0.80
2022-09-28T15:06:25.494Z,0.70
2022-09-28T15:08:52.185Z,0.70
2022-09-28T15:11:24.703Z,0.65
2022-09-28T15:14:06.266Z,0.60
2022-09-28T15:16:34.185Z,0.70
2022-09-28T15:19:10.472Z,0.90
2022-09-28T15:21:39.191Z,0.90
2022-09-28T15:24:26.185Z,1.50
2022-09-28T15:26:53.382Z,1.52
2022-09-28T15:29:22.960Z,7.45
2022-09-28T15:31:54.174Z,4.70
2022-09-28T15:34:49.990Z,3.65
2022-09-28T15:37:40.617Z,2.00
2022-09-28T15:40:13.602Z,1.50
2022-09-28T15:42:40.338Z,1.27
2022-09-28T15:45:25.585Z,1.50
2022-09-28T15:47:57.636Z,1.00
2022-09-28T15:50:31.848Z,1.10
2022-09-28T15:53:03.856Z,0.90
2022-09-28T15:55:36.761Z,1.02
2022-09-28T15:58:12.702Z,1.10
2022-09-28T16:00:40.345Z,0.90
2022-09-28T16:03:07.088Z,1.05
2022-09-28T16:05:47.323Z,1.40
2022-09-28T16:08:24.345Z,1.30
2022-09-28T16:10:59.968Z,1.35
2022-09-28T16:13:26.849Z,1.77
2022-09-28T16:15:58.229Z,1.55
2022-09-28T16:18:29.878Z,1.80
2022-09-28T16:21:35.261Z,1.60
2022-09-28T16:24:02.064Z,1.98
2022-09-28T16:26:39.086Z,1.73
2022-09-28T16:29:42.113Z,1.80
2022-09-28T16:32:27.153Z,1.90
2022-09-28T16:35:09.330Z,1.92
2022-09-28T16:37:36.398Z,2.53
2022-09-28T16:40:04.569Z,3.05
2022-09-28T16:42:32.019Z,2.53
2022-09-28T16:44:59.279Z,2.97
2022-09-28T16:47:26.108Z,4.40
2022-09-28T16:49:52.915Z,3.53
2022-09-28T16:52:39.739Z,3.70
2022-09-28T16:55:40.562Z,2.70
2022-09-28T16:58:04.892Z,2.50
2022-09-28T17:00:33.656Z,2.60
2022-09-28T17:03:00.530Z,2.90
2022-09-28T17:05:27.431Z,2.63
2022-09-28T17:08:01.422Z,2.38
2022-09-28T17:10:55.719Z,2.35
2022-09-28T17:13:33.421Z,2.50
2022-09-28T17:16:01.823Z,2.47
2022-09-28T17:18:32.284Z,2.60
2022-09-28T17:21:03.310Z,2.72
2022-09-28T17:23:30.551Z,2.10
2022-09-28T17:25:59.165Z,2.00
2022-09-28T17:28:27.683Z,2.30
2022-09-28T17:30:54.840Z,2.75
2022-09-28T17:33:21.716Z,2.10
2022-09-28T17:35:48.521Z,2.42
2022-09-28T17:38:15.871Z,2.10
2022-09-28T17:40:43.818Z,2.47
2022-09-28T17:43:10.608Z,2.50
2022-09-28T17:45:41.740Z,2.05
2022-09-28T17:48:15.907Z,2.25
2022-09-28T17:50:46.385Z,2.22
2022-09-28T17:53:14.011Z,2.13
2022-09-28T17:55:43.179Z,2.30
2022-09-28T17:58:20.045Z,2.40
2022-09-28T18:00:48.208Z,2.22
2022-09-28T18:03:17.057Z,2.58
2022-09-28T18:05:44.638Z,2.78
2022-09-28T18:08:14.416Z,2.72
2022-09-28T18:10:41.452Z,2.63
2022-09-28T18:13:08.648Z,2.58
2022-09-28T18:15:36.273Z,2.70
2022-09-28T18:18:03.291Z,2.63
2022-09-28T18:20:30.758Z,2.90
2022-09-28T18:22:57.920Z,2.97
2022-09-28T18:25:24.960Z,3.03
2022-09-28T18:27:54.635Z,3.00
2022-09-28T18:30:21.594Z,2.88
2022-09-28T18:32:48.463Z,2.50
2022-09-28T18:35:19.390Z,2.80
2022-09-28T18:37:49.947Z,2.88
2022-09-28T18:40:16.968Z,2.80
2022-09-28T18:42:43.880Z,3.17
2022-09-28T18:45:11.440Z,2.95
2022-09-28T18:47:39.200Z,3.33
2022-09-28T18:50:06.564Z,3.45
2022-09-28T18:52:36.531Z,3.30
2022-09-28T18:55:04.325Z,3.38
2022-09-28T18:57:33.627Z,3.10
2022-09-28T19:00:01.714Z,3.20
2022-09-28T19:02:28.658Z,3.33
2022-09-28T19:04:55.531Z,3.10
2022-09-28T19:07:24.184Z,4.30
2022-09-28T19:09:51.442Z,3.70
2022-09-28T19:12:19.099Z,4.07
2022-09-28T19:14:46.019Z,3.88
2022-09-28T19:17:12.745Z,4.00
2022-09-28T19:19:39.495Z,4.53
2022-09-28T19:22:06.299Z,4.57
2022-09-28T19:24:34.130Z,4.18
2022-09-28T19:27:00.987Z,5.43
2022-09-28T19:29:27.760Z,5.35
2022-09-28T19:31:56.817Z,4.70
2022-09-28T19:34:27.056Z,4.28
2022-09-28T19:36:53.838Z,4.47
2022-09-28T19:39:20.514Z,4.32
2022-09-28T19:41:51.388Z,4.75
2022-09-28T19:44:25.226Z,4.53
2022-09-28T19:46:54.766Z,5.05
2022-09-28T19:49:22.788Z,5.63
2022-09-28T19:52:11.591Z,5.28
2022-09-28T19:54:37.621Z,5.47
2022-09-28T19:57:08.137Z,4.55
2022-09-28T19:59:36.758Z,4.50
2022-09-28T20:02:05.523Z,4.40
2022-09-28T20:04:32.439Z,4.20
2022-09-28T20:06:59.151Z,4.30
2022-09-28T20:09:25.981Z,4.30
2022-09-28T20:11:53.267Z,4.63
2022-09-28T20:14:22.383Z,4.35
2022-09-28T20:16:51.223Z,5.25
2022-09-28T20:19:21.194Z,5.88
2022-09-28T20:21:48.478Z,5.75
2022-09-28T20:24:16.693Z,6.00
2022-09-28T20:26:44.733Z,6.40
2022-09-28T20:29:12.067Z,7.03
2022-09-28T20:31:38.863Z,7.15
2022-09-28T20:34:06.595Z,6.50
2022-09-28T20:36:33.667Z,4.32
2022-09-28T20:39:04.393Z,4.88
2022-09-28T20:41:35.763Z,4.90
2022-09-28T20:44:05.815Z,4.60
2022-09-28T20:46:36.107Z,3.88
2022-09-28T20:49:03.840Z,3.88
2022-09-28T20:51:31.089Z,3.97
2022-09-28T20:53:58.716Z,3.85
2022-09-28T20:56:26.304Z,3.58
2022-09-28T20:58:54.024Z,3.70
2022-09-28T21:01:23.004Z,4.10
2022-09-28T21:03:57.639Z,4.00
2022-09-28T21:06:26.948Z,4.28
2022-09-28T21:08:53.733Z,4.30
2022-09-28T21:11:22.714Z,4.07
2022-09-28T21:13:53.664Z,4.40
2022-09-28T21:16:20.844Z,4.10
2022-09-28T21:18:47.942Z,3.78
2022-09-28T21:21:16.143Z,4.07
2022-09-28T21:23:45.003Z,3.67
2022-09-28T21:26:19.040Z,3.67
2022-09-28T21:28:46.106Z,3.75
2022-09-28T21:31:12.985Z,3.45
2022-09-28T21:33:39.684Z,3.13
2022-09-28T21:36:07.883Z,3.03
2022-09-28T21:38:34.637Z,3.20
2022-09-28T21:41:01.405Z,3.00
2022-09-28T21:43:29.152Z,3.40
2022-09-28T21:45:56.403Z,3.42
2022-09-28T21:48:24.261Z,2.80
2022-09-28T21:51:02.733Z,3.05
2022-09-28T21:53:35.127Z,3.47
2022-09-28T21:56:02.584Z,3.42
2022-09-28T21:58:31.111Z,3.40
2022-09-28T22:01:07.125Z,3.10
2022-09-28T22:03:35.689Z,3.25
2022-09-28T22:06:03.430Z,3.28
2022-09-28T22:08:30.442Z,3.42
2022-09-28T22:11:24.495Z,3.08
2022-09-28T22:13:56.005Z,3.35
2022-09-28T22:16:25.442Z,3.42
2022-09-28T22:18:52.356Z,3.15
2022-09-28T22:21:21.672Z,3.35
2022-09-28T22:23:48.628Z,3.20
2022-09-28T22:26:20.980Z,2.92
2022-09-28T22:28:58.965Z,3.13
2022-09-28T22:31:30.986Z,3.35
2022-09-28T22:33:58.057Z,3.00
2022-09-28T22:36:26.014Z,2.88
2022-09-28T22:38:52.888Z,3.40
2022-09-28T22:41:22.885Z,3.35
2022-09-28T22:43:50.849Z,3.35
2022-09-28T22:46:20.225Z,3.20
2022-09-28T22:48:48.727Z,3.15
2022-09-28T22:51:15.911Z,3.20
2022-09-28T22:53:43.119Z,3.58
2022-09-28T22:56:12.593Z,3.10
2022-09-28T22:58:42.732Z,2.50
2022-09-28T23:01:14.519Z,2.97
2022-09-28T23:03:42.376Z,3.50
2022-09-28T23:06:10.135Z,3.42
2022-09-28T23:08:36.835Z,3.05
2022-09-28T23:11:04.358Z,3.40
2022-09-28T23:13:31.306Z,3.40
2022-09-28T23:16:00.393Z,3.47
2022-09-28T23:18:29.199Z,3.15
2022-09-28T23:20:56.993Z,3.38
2022-09-28T23:23:23.846Z,3.03
2022-09-28T23:25:51.555Z,3.15
2022-09-28T23:28:19.104Z,3.33
2022-09-28T23:30:45.846Z,3.38
2022-09-28T23:33:13.958Z,3.80
2022-09-28T23:35:41.294Z,4.20
2022-09-28T23:38:11.981Z,3.40
2022-09-28T23:40:38.776Z,3.67
2022-09-28T23:43:05.567Z,3.70
2022-09-28T23:45:32.247Z,4.07
2022-09-28T23:47:58.964Z,4.10
2022-09-28T23:50:25.678Z,3.67
2022-09-28T23:52:52.522Z,3.72
2022-09-28T23:55:19.299Z,3.75
2022-09-28T23:57:46.377Z,3.78
